Tiempo atmosférico en la estación meteorológica de Coruña Del Conde, Burgos (945 m.)



Fecha
DESCASC
Temp. máxima en grados centígrados (hora)
DESCASC
Temp. mínima en grados centígrados (hora)
DESCASC
Temp. media en grados centígrados
DESCASC
Racha de viento máxima en m/sg (hora)
DESCASC
Velocidad máxima media en intervalos de 10 minutos(hora)
DESCASC
Precipitaciones diarias en mm
DESCASC
Precipitaciones de 00:00 a 06:00 en mm
DESCASC
Precipitaciones de 06:00 a 12:00 en mm
DESCASC
Precipitaciones de 12:00 a 18:00 en mm
DESCASC
Precipitaciones de 18:00 a 24:00 en mm
DESCASC
10-07-2020 30.1 (18:30) 12.3 (05:50) 21.2 9.72 (12:00) 5.28 (11:00) 0 0 0 0 0
09-07-2020 29.8 (13:50) 15.3 (05:00) 22.5 22.22 (17:00) 14.72 (17:00) 1.4 0 0 0.2 1.2
08-07-2020 33.5 (18:00) 17.6 (22:20) 25.6 12.5 (18:10) 8.33 (18:10) 1.6 0 0 0 1.6
07-07-2020 33.4 (18:00) 12 (06:40) 22.7 8.06 (15:50) 5 (20:20) 0 0 0 0 0
06-07-2020 31.5 (17:00) 15.7 (00:00) 23.6 9.44 (16:00) 6.11 (16:10) 0 0 0 0 0
05-07-2020 32.3 (19:10) 11.3 (00:00) 21.8 8.33 (18:00) 5.28 (21:10) 0 0 0 0 0
04-07-2020 29.6 (18:30) 7.8 (00:00) 18.7 7.78 (12:10) 4.72 (20:30) 0 0 0 0 0
03-07-2020 25.4 (17:30) 9.2 (06:30) 17.3 8.61 (18:20) 5 (18:40) 0 0 0 0 0
02-07-2020 26.7 (18:20) 12.7 (00:00) 19.7 11.67 (17:00) 6.11 (17:00) 0 0 0 0 0
01-07-2020 30.2 (17:40) 14.7 (00:00) 22.5 12.22 (18:30) 6.39 (18:30) 0 0 0 0 0
30-06-2020 33 (16:30) 14.9 (00:00) 23.9 17.78 (18:40) 6.39 (18:40) 6.8 0 0 0 6.8
29-06-2020 30.6 (18:10) 15.4 (00:00) 23 9.17 (18:00) 5 (17:50) 0 0 0 0 0
28-06-2020 29.3 (18:50) 12.9 (00:00) 21.1 8.61 (16:10) 4.72 (16:50) 0 0 0 0 0
27-06-2020 26.8 (19:10) 13.6 (00:00) 20.2 8.33 (12:00) 5 (19:20) 0 0 0 0 0
26-06-2020 27.6 (17:10) 16.3 (00:00) 21.9 11.67 (03:40) 6.94 (03:30) 0 0 0 0 0
25-06-2020 29.6 (15:20) 16.2 (00:00) 22.9 12.22 (08:30) 6.94 (08:30) 1.6 0 0.4 0.6 0.6
24-06-2020 29.3 (17:20) 17 (00:00) 23.1 12.78 (14:50) 8.89 (15:00) 0.2 0.2 0 0 0
23-06-2020 33.8 (18:00) 16 (00:00) 24.9 17.78 (21:30) 7.78 (21:30) 0.8 0 0 0 0.8
22-06-2020 30.8 (18:20) 12.4 (00:00) 21.6 6.94 (17:20) 3.61 (08:30) 0 0 0 0 0
21-06-2020 28.8 (18:00) 10.2 (00:00) 19.5 8.61 (16:10) 5 (13:40) 0 0 0 0 0
20-06-2020 27.9 (18:10) 10.1 (00:00) 19 8.33 (14:10) 4.44 (18:50) 0 0 0 0 0
19-06-2020 25.8 (17:50) 9.2 (00:00) 17.5 8.89 (13:40) 4.72 (15:20) 0 0 0 0 0
18-06-2020 23 (18:20) 10.2 (00:00) 16.6 8.89 (18:50) 5.28 (17:40) 0 0 0 0 0
17-06-2020 20.3 (16:00) 8.2 (00:00) 14.2 7.5 (16:20) 3.89 (15:40) 0 0 0 0 0
16-06-2020 19.9 (15:40) 10.3 (00:00) 15.1 12.78 (16:40) 8.06 (16:30) 0 0 0 0 0
15-06-2020 20.6 (17:10) 9.3 (00:00) 15 7.5 (17:30) 4.72 (18:40) 0 0 0 0 0
14-06-2020 19.5 (16:00) 8.6 (00:00) 14.1 16.11 (18:00) 5.28 (19:20) 0 0 0 0 0
13-06-2020 18.8 (18:10) 8.7 (00:00) 13.7 9.17 (14:10) 5.28 (15:20) 0.2 0 0.2 0 0
12-06-2020 14.3 (15:30) 6.8 (00:00) 10.6 12.78 (14:50) 8.33 (14:50) 4 0 0 3.4 0.6

Gráficas

Temp. máximas Temp. mínimas Temp. medias Precipitaciones Rachas de viento máximas Velocidades máximas media en intervalos de 10 minutos

Datos horarios

Fecha y hora oficial Temperatura (ºC) Velocidad del viento (km/h) Dirección del viento Racha (km/h) Dirección de racha Precipitación (mm) Presión (hPa) Tendencia (hPa) Humedad (%)
2020-07-11 23:00:00 23.8 15 Este 31 Este 0 -- -- 49
2020-07-11 22:00:00 25.3 18 Este 31 Este 0 -- -- 46
2020-07-11 21:00:00 28 17 Este 32 Nordeste 0 -- -- 41
2020-07-11 20:00:00 30.5 9 Sur 27 Sur 0 -- -- 32
2020-07-11 19:00:00 30.7 9 Sudeste 23 Este 0 -- -- 30
2020-07-11 18:00:00 31.8 12 Este 23 Sudeste 0 -- -- 30
2020-07-11 17:00:00 30.6 8 Sur 26 Sudeste 0 -- -- 33
2020-07-11 16:00:00 31.5 13 Sur 25 Sur 0 -- -- 31
2020-07-11 15:00:00 30.6 13 Sudoeste 32 Sudeste 0 -- -- 32
2020-07-11 14:00:00 29.1 9 Sur 21 Sudeste 0 -- -- 36
2020-07-11 13:00:00 27.5 12 Sudeste 23 Este 0 -- -- 43
2020-07-11 12:00:00 25.3 16 Sudeste 30 Sudeste 0 -- -- 50
2020-07-11 11:00:00 22.8 18 Sudeste 34 Este 0 -- -- 56
2020-07-11 10:00:00 20.5 17 Sudeste 34 Sudeste 0 -- -- 63
2020-07-11 09:00:00 18.3 17 Sudeste 27 Sudeste 0 -- -- 70
2020-07-11 08:00:00 15.8 9 Sudeste 17 Sudeste 0 -- -- 78
2020-07-11 07:00:00 14.7 8 Este 17 Este 0 -- -- 82
2020-07-11 06:00:00 14.6 8 Este 13 Este 0 -- -- 84
2020-07-11 05:00:00 14.9 7 Este 15 Este 0 -- -- 84
2020-07-11 04:00:00 15.8 9 Sudeste 16 Sudeste 0 -- -- 81
2020-07-11 03:00:00 16.7 8 Sudeste 13 Sudeste 0 -- -- 78
2020-07-11 02:00:00 17.8 6 Sudeste 10 Sudeste 0 -- -- 73
2020-07-11 01:00:00 19.1 8 Este 10 Este 0 -- -- 70
2020-07-11 00:00:00 20.1 7 Este 12 Nordeste 0 -- -- 63
2020-07-10 23:00:00 21.1 8 Nordeste 12 Nordeste 0 -- -- 60
2020-07-10 22:00:00 22.9 10 Nordeste 21 Nordeste 0 -- -- 54
2020-07-10 21:00:00 26.1 11 Nordeste 30 Este 0 -- -- 42
2020-07-10 20:00:00 29.1 4 Norte 19 Nordeste 0 -- -- 31
2020-07-10 19:00:00 28.8 14 Nordeste 21 Este 0 -- -- 34
2020-07-10 18:00:00 29.7 9 Sudeste 18 Sudeste 0 -- -- 29
2020-07-10 17:00:00 29.5 7 Sudeste 19 Sudoeste 0 -- -- 28
2020-07-10 16:00:00 28.9 15 Sur 28 Sur 0 -- -- 31
2020-07-10 15:00:00 28.3 15 Sur 28 Sudeste 0 -- -- 35
2020-07-10 14:00:00 27.5 15 Sudeste 27 Sudeste 0 -- -- 38
2020-07-10 13:00:00 26.3 13 Sudeste 26 Sudeste 0 -- -- 41
2020-07-10 12:00:00 24.9 15 Sudeste 35 Sudeste 0 -- -- 45
2020-07-10 11:00:00 23.4 19 Sudeste 31 Sudeste 0 -- -- 48
2020-07-10 10:00:00 21.8 16 Sudeste 32 Este 0 -- -- 56
2020-07-10 09:00:00 19.2 10 Este 17 Este 0 -- -- 66
2020-07-10 08:00:00 15.3 8 Este 10 Este 0 -- -- 80
2020-07-10 07:00:00 12.3 0 Calma 9 Este 0 -- -- 84
2020-07-10 06:00:00 12.4 5 Nordeste 9 Nordeste 0 -- -- 85
2020-07-10 05:00:00 12.8 3 Norte 6 Nordeste 0 -- -- 83
2020-07-10 04:00:00 13.7 4 Norte 8 Nordeste 0 -- -- 81
2020-07-10 03:00:00 15.3 7 Nordeste 14 Este 0 -- -- 72
2020-07-10 02:00:00 15.1 6 Nordeste 18 Este 0 -- -- 78
2020-07-10 01:00:00 16.5 10 Nordeste 22 Nordeste 0 -- -- 71
2020-07-10 00:00:00 15.9 13 Nordeste 19 Nordeste 0 -- -- 81
2020-07-09 23:00:00 15.9 12 Este 19 Nordeste 0 -- -- 81
2020-07-09 22:00:00 15.9 12 Este 18 Sudeste 0 -- -- 81
2020-07-09 21:00:00 16.6 6 Sur 29 Sudeste 0 -- -- 80
2020-07-09 20:00:00 16.7 16 Nordeste 27 Este 0.2 -- -- 79
2020-07-09 19:00:00 16 16 Sur 63 Sudeste 1 -- -- 80
2020-07-09 18:00:00 17 39 Sudeste 67 Sudeste 0 -- -- 73
2020-07-09 17:00:00 20.8 53 Sudeste 80 Este 0 -- -- 58
2020-07-09 16:00:00 23.1 5 Sudoeste 38 Sudeste 0.2 -- -- 49
2020-07-09 15:00:00 27.9 14 Sudeste 32 Sudeste 0 -- -- 29
2020-07-09 14:00:00 29.8 9 Sudeste 23 Sudeste 0 -- -- 30
2020-07-09 13:00:00 26.2 7 Este 26 Sudeste 0 -- -- 43
2020-07-09 12:00:00 26.1 11 Nordeste 30 Este 0 -- -- 41
2020-07-09 11:00:00 23.8 13 Este 26 Este 0 -- -- 44
2020-07-09 10:00:00 23.5 12 Este 24 Sudeste 0 -- -- 48
2020-07-09 09:00:00 19.6 10 Sudeste 20 Sudeste 0 -- -- 59
2020-07-09 08:00:00 16.8 8 Sudeste 14 Este 0 -- -- 64
2020-07-09 07:00:00 16.2 9 Este 18 Este 0 -- -- 64
2020-07-09 06:00:00 16.6 16 Sudeste 27 Sudeste 0 -- -- 64
2020-07-09 05:00:00 15.3 10 Sudeste 17 Sudeste 0 -- -- 71
2020-07-09 04:00:00 16.5 6 Sudeste 17 Sur 0 -- -- 65
2020-07-09 03:00:00 17 7 Sudeste 27 Nordeste 0 -- -- 65
2020-07-09 02:00:00 17.4 19 Nordeste 28 Nordeste 0 -- -- 67
2020-07-09 01:00:00 17.2 19 Nordeste 30 Nordeste 0 -- -- 68
2020-07-09 00:00:00 17.7 7 Noroeste 21 Oeste 0 -- -- 71
2020-07-08 23:00:00 18.1 12 Oeste 21 Oeste 0 -- -- 72
2020-07-08 22:00:00 17.9 12 Oeste 31 Oeste 1.6 -- -- 75
2020-07-08 21:00:00 21.8 9 Noroeste 35 Noroeste 0 -- -- 51
2020-07-08 20:00:00 29 15 Sur 35 Sudeste 0 -- -- 25
2020-07-08 19:00:00 30.7 23 Sudeste 45 Sur 0 -- -- 23
2020-07-08 18:00:00 33.5 25 Sur 40 Sudeste 0 -- -- 18
2020-07-08 17:00:00 32.9 16 Sudeste 35 Sudeste 0 -- -- 19
2020-07-08 16:00:00 32.3 17 Sudeste 31 Sudeste 0 -- -- 19
2020-07-08 15:00:00 33.2 18 Sudeste 28 Sudeste 0 -- -- 21
2020-07-08 14:00:00 32.9 5 Nordeste 13 Sudeste 0 -- -- 19
2020-07-08 13:00:00 30.3 7 Nordeste 21 Nordeste 0 -- -- 27
2020-07-08 12:00:00 26.1 13 Este 23 Nordeste 0 -- -- 36
2020-07-08 11:00:00 25 11 Este 27 Nordeste 0 -- -- 36
2020-07-08 10:00:00 22.4 12 Este 38 Sudeste 0 -- -- 39
2020-07-08 09:00:00 22.5 13 Este 38 Este 0 -- -- 37
2020-07-08 08:00:00 19.9 21 Este 41 Este 0 -- -- 43
2020-07-08 07:00:00 19.5 12 Este 23 Sudeste 0 -- -- 43
2020-07-08 06:00:00 19.3 12 Este 23 Este 0 -- -- 45
2020-07-08 05:00:00 19.4 13 Este 23 Sudeste 0 -- -- 43
2020-07-08 04:00:00 20 13 Este 30 Este 0 -- -- 43
2020-07-08 03:00:00 20.6 17 Sudeste 31 Sudeste 0 -- -- 43
2020-07-08 02:00:00 20.1 10 Este 19 Sudeste 0 -- -- 44
2020-07-08 01:00:00 21.5 4 Sudeste 20 Este 0 -- -- 41
2020-07-08 00:00:00 22.8 13 Sudeste 19 Sudeste 0 -- -- 38
2020-07-07 23:00:00 24.2 9 Este 19 Sudeste 0 -- -- 33
2020-07-07 22:00:00 26.5 7 Nordeste 15 Nordeste 0 -- -- 28
2020-07-07 21:00:00 29.3 13 Nordeste 25 Nordeste 0 -- -- 27
2020-07-07 20:00:00 31.3 17 Norte 26 Norte 0 -- -- 25
2020-07-07 19:00:00 33.3 9 Noroeste 27 Noroeste 0 -- -- 22
2020-07-07 18:00:00 33.4 13 Noroeste 27 Noroeste 0 -- -- 22
2020-07-07 17:00:00 33.1 12 Oeste 28 Oeste 0 -- -- 23
2020-07-07 16:00:00 32.8 12 Noroeste 29 Oeste 0 -- -- 25
2020-07-07 15:00:00 31.6 13 Noroeste 27 Noroeste 0 -- -- 29
2020-07-07 14:00:00 30.5 9 Noroeste 20 Oeste 0 -- -- 31
2020-07-07 13:00:00 29.2 5 Norte 14 Oeste 0 -- -- 29
2020-07-07 12:00:00 27.1 7 Noroeste 12 Noroeste 0 -- -- 25
2020-07-07 11:00:00 24.5 4 Norte 9 Norte 0 -- -- 32
2020-07-07 10:00:00 21.7 6 Este 13 Este 0 -- -- 34
2020-07-07 09:00:00 18.9 6 Sudeste 13 Sudeste 0 -- -- 37
2020-07-07 08:00:00 15.8 7 Este 11 Este 0 -- -- 46
2020-07-07 07:00:00 12.2 5 Nordeste 10 Sudeste 0 -- -- 63
2020-07-07 06:00:00 12.9 4 Este 14 Este 0 -- -- 65
2020-07-07 05:00:00 13.8 8 Sudeste 16 Este 0 -- -- 67
2020-07-07 04:00:00 14.3 4 Nordeste 8 Este 0 -- -- 68
2020-07-07 03:00:00 15.6 4 Sudeste 9 Este 0 -- -- 62
2020-07-07 02:00:00 15.9 8 Este 11 Este 0 -- -- 60
2020-07-07 01:00:00 17.4 5 Este 13 Este 0 -- -- 51
2020-07-07 00:00:00 18.3 8 Este 12 Sudeste 0 -- -- 46
2020-07-06 23:00:00 20.3 4 Nordeste 13 Nordeste 0 -- -- 43
2020-07-06 22:00:00 22.4 8 Nordeste 22 Nordeste 0 -- -- 37
2020-07-06 21:00:00 25.6 14 Norte 25 Norte 0 -- -- 41
2020-07-06 20:00:00 27.9 19 Norte 33 Noroeste 0 -- -- 39
2020-07-06 19:00:00 30 15 Norte 28 Norte 0 -- -- 34
2020-07-06 18:00:00 30.9 16 Noroeste 33 Noroeste 0 -- -- 34
2020-07-06 17:00:00 31.5 17 Noroeste 34 Norte 0 -- -- 34
2020-07-06 16:00:00 30.8 21 Oeste 34 Oeste 0 -- -- 36
2020-07-06 15:00:00 30.1 8 Noroeste 25 Oeste 0 -- -- 35
2020-07-06 14:00:00 29.3 10 Noroeste 22 Oeste 0 -- -- 36
2020-07-06 13:00:00 28.1 8 Sudoeste 20 Oeste 0 -- -- 39
2020-07-06 12:00:00 26.4 8 Norte 17 Noroeste 0 -- -- 39
2020-07-06 11:00:00 24.7 6 Sudoeste 10 Oeste 0 -- -- 46
2020-07-06 10:00:00 22.7 3 Norte 8 Noroeste 0 -- -- 51
2020-07-06 09:00:00 21 4 Sudeste 8 Sudeste 0 -- -- 58
2020-07-06 08:00:00 18.3 3 Este 5 Nordeste 0 -- -- 67
2020-07-06 07:00:00 15.9 3 Nordeste 10 Este 0 -- -- 74
2020-07-06 06:00:00 16.2 7 Este 15 Este 0 -- -- 73
2020-07-06 05:00:00 16.8 9 Este 15 Este 0 -- -- 74
2020-07-06 04:00:00 16.7 4 Nordeste 8 Norte 0 -- -- 72
2020-07-06 03:00:00 17.9 6 Este 8 Este 0 -- -- 67
2020-07-06 02:00:00 19.1 5 Nordeste 10 Noroeste 0 -- -- 64
2020-07-06 01:00:00 19.8 0 Calma 10 Sur 0 -- -- 60
2020-07-06 00:00:00 22 5 Este 12 Norte 0 -- -- 54
2020-07-05 23:00:00 23.4 7 Nordeste 17 Norte 0 -- -- 50
2020-07-05 22:00:00 25.2 8 Norte 26 Norte 0 -- -- 45
2020-07-05 21:00:00 28.9 17 Norte 26 Norte 0 -- -- 37
2020-07-05 20:00:00 31.6 12 Noroeste 26 Oeste 0 -- -- 21
2020-07-05 19:00:00 32.2 8 Noroeste 20 Noroeste 0 -- -- 17
2020-07-05 18:00:00 32.1 6 Sudoeste 30 Noroeste 0 -- -- 18
2020-07-05 17:00:00 31.6 12 Oeste 24 Oeste 0 -- -- 19
2020-07-05 16:00:00 31.4 6 Norte 21 Noroeste 0 -- -- 21
2020-07-05 15:00:00 30.7 8 Norte 16 Oeste 0 -- -- 22
2020-07-05 14:00:00 29.3 6 Sudoeste 16 Sudoeste 0 -- -- 26
2020-07-05 13:00:00 28 7 Sudoeste 20 Sudeste 0 -- -- 27
2020-07-05 12:00:00 26.4 8 Este 17 Este 0 -- -- 31
2020-07-05 11:00:00 24.7 7 Este 15 Sudeste 0 -- -- 34
2020-07-05 10:00:00 22.7 8 Sudeste 19 Sudeste 0 -- -- 40
2020-07-05 09:00:00 19.6 8 Este 12 Este 0 -- -- 48
2020-07-05 08:00:00 15.7 5 Este 10 Este 0 -- -- 60
2020-07-05 07:00:00 11.3 4 Nordeste 8 Este 0 -- -- 69
2020-07-05 06:00:00 11.4 3 Nordeste 10 Este 0 -- -- 69
2020-07-05 05:00:00 12.2 4 Norte 6 Este 0 -- -- 65
2020-07-05 04:00:00 13.5 3 Nordeste 8 Este 0 -- -- 60
2020-07-05 03:00:00 15 8 Este 10 Este 0 -- -- 55
2020-07-05 02:00:00 15.5 4 Nordeste 8 Este 0 -- -- 52
2020-07-05 01:00:00 17.4 6 Este 13 Este 0 -- -- 47
2020-07-05 00:00:00 18.7 10 Este 16 Este 0 -- -- 44
2020-07-04 23:00:00 20.4 10 Nordeste 18 Norte 0 -- -- 40
2020-07-04 22:00:00 22.7 10 Norte 17 Norte 0 -- -- 34
2020-07-04 21:00:00 26.5 13 Noroeste 24 Noroeste 0 -- -- 28
2020-07-04 20:00:00 28.7 10 Noroeste 21 Noroeste 0 -- -- 21
2020-07-04 19:00:00 29.3 12 Noroeste 20 Sudoeste 0 -- -- 18
2020-07-04 18:00:00 29.3 9 Noroeste 24 Noroeste 0 -- -- 15
2020-07-04 17:00:00 29.3 13 Noroeste 27 Noroeste 0 -- -- 13
2020-07-04 16:00:00 28.4 12 Noroeste 26 Noroeste 0 -- -- 13
2020-07-04 15:00:00 27.5 10 Norte 23 Noroeste 0 -- -- 16
2020-07-04 14:00:00 26.6 9 Noroeste 24 Noroeste 0 -- -- 17
2020-07-04 13:00:00 25.1 11 Norte 28 Noroeste 0 -- -- 21
2020-07-04 12:00:00 23.8 13 Noroeste 27 Noroeste 0 -- -- 20
2020-07-04 11:00:00 20.4 6 Oeste 15 Noroeste 0 -- -- 33
2020-07-04 10:00:00 17.3 2 Oeste 10 Sudoeste 0 -- -- 46
2020-07-04 09:00:00 14 3 Sudoeste 7 Sudoeste 0 -- -- 63
2020-07-04 08:00:00 11.2 2 Nordeste 6 Nordeste 0 -- -- 68
2020-07-04 07:00:00 7.8 3 Norte 5 Norte 0 -- -- 77
2020-07-04 06:00:00 9 3 Nordeste 4 Nordeste 0 -- -- 72
2020-07-04 05:00:00 10.1 3 Sur 10 Sudeste 0 -- -- 70
2020-07-04 04:00:00 10.2 5 Sudeste 11 Sudeste 0 -- -- 68
2020-07-04 03:00:00 11.6 4 Noroeste 5 Noroeste 0 -- -- 66
2020-07-04 02:00:00 12.5 2 Norte 7 Sudoeste 0 -- -- 62
2020-07-04 01:00:00 14.1 0 Calma 14 Norte 0 -- -- 56
2020-07-04 00:00:00 14.5 8 Nordeste 10 Nordeste 0 -- -- 55
2020-07-03 23:00:00 15.5 10 Noroeste 19 Noroeste 0 -- -- 52
2020-07-03 22:00:00 18 10 Noroeste 25 Noroeste 0 -- -- 46
2020-07-03 21:00:00 21.6 17 Noroeste 27 Noroeste 0 -- -- 35
2020-07-03 20:00:00 23.7 15 Noroeste 24 Oeste 0 -- -- 28
2020-07-03 19:00:00 24.9 14 Noroeste 31 Oeste 0 -- -- 26
2020-07-03 18:00:00 25 15 Oeste 29 Oeste 0 -- -- 26
2020-07-03 17:00:00 24.9 12 Oeste 27 Noroeste 0 -- -- 29
2020-07-03 16:00:00 24.6 11 Sudoeste 27 Oeste 0 -- -- 32
2020-07-03 15:00:00 23.6 8 Noroeste 27 Oeste 0 -- -- 34
2020-07-03 14:00:00 22.1 5 Sudoeste 21 Noroeste 0 -- -- 37
2020-07-03 13:00:00 21 10 Oeste 18 Oeste 0 -- -- 47
2020-07-03 12:00:00 18.8 6 Noroeste 13 Noroeste 0 -- -- 53
2020-07-03 11:00:00 17.4 6 Norte 12 Este 0 -- -- 59
2020-07-03 10:00:00 15.7 4 Nordeste 12 Sudeste 0 -- -- 66
2020-07-03 09:00:00 13.7 8 Sudeste 13 Sudeste 0 -- -- 74
2020-07-03 08:00:00 11.7 6 Sudeste 9 Sudeste 0 -- -- 82
2020-07-03 07:00:00 9.3 2 Nordeste 6 Este 0 -- -- 87
2020-07-03 06:00:00 9.5 5 Este 8 Este 0 -- -- 85
2020-07-03 05:00:00 10.3 6 Nordeste 9 Este 0 -- -- 84
2020-07-03 04:00:00 10.8 3 Este 5 Este 0 -- -- 86
2020-07-03 03:00:00 11.8 3 Norte 8 Sudoeste 0 -- -- 81
2020-07-03 02:00:00 13.5 5 Sudeste 10 Sur 0 -- -- 78
2020-07-03 01:00:00 14.9 11 Sur 17 Sudeste 0 -- -- 74
2020-07-03 00:00:00 16.3 5 Sur 19 Sudeste 0 -- -- 67
2020-07-02 23:00:00 16.6 10 Norte 23 Nordeste 0 -- -- 66
2020-07-02 22:00:00 18.9 9 Nordeste 22 Norte 0 -- -- 61
2020-07-02 21:00:00 22.6 14 Norte 26 Noroeste 0 -- -- 51
2020-07-02 20:00:00 25.4 15 Oeste 35 Oeste 0 -- -- 30
2020-07-02 19:00:00 26.2 20 Oeste 38 Oeste 0 -- -- 30
2020-07-02 18:00:00 25.8 17 Oeste 34 Noroeste 0 -- -- 34
2020-07-02 17:00:00 26.2 22 Noroeste 42 Oeste 0 -- -- 34
2020-07-02 16:00:00 26.4 18 Oeste 37 Oeste 0 -- -- 35
2020-07-02 15:00:00 25 15 Oeste 30 Noroeste 0 -- -- 40
2020-07-02 14:00:00 23.9 13 Oeste 29 Oeste 0 -- -- 45
2020-07-02 13:00:00 22.2 16 Noroeste 29 Oeste 0 -- -- 53
2020-07-02 12:00:00 21.4 13 Oeste 23 Noroeste 0 -- -- 56
2020-07-02 11:00:00 19.6 11 Oeste 19 Oeste 0 -- -- 66
2020-07-02 10:00:00 17.1 8 Sudoeste 13 Sudoeste 0 -- -- 80
2020-07-02 09:00:00 15.1 5 Noroeste 8 Noroeste 0 -- -- 87
2020-07-02 08:00:00 14.5 3 Sudoeste 5 Sudoeste 0 -- -- 87
2020-07-02 07:00:00 13.2 2 Sudoeste 6 Noroeste 0 -- -- 90
2020-07-02 06:00:00 13.5 3 Noroeste 8 Noroeste 0 -- -- 88
2020-07-02 05:00:00 14.5 0 Calma 10 Oeste 0 -- -- 82
2020-07-02 04:00:00 15.5 0 Calma 4 Sudeste 0 -- -- 75
2020-07-02 03:00:00 15.6 4 Sudoeste 14 Sudoeste 0 -- -- 74
2020-07-02 02:00:00 16.9 10 Sudoeste 14 Sudoeste 0 -- -- 72
2020-07-02 01:00:00 19.2 2 Norte 5 Norte 0 -- -- 55
2020-07-02 00:00:00 20.2 4 Noroeste 11 Noroeste 0 -- -- 50
2020-07-01 23:00:00 22.2 8 Oeste 23 Oeste 0 -- -- 37
2020-07-01 22:00:00 24.9 16 Oeste 23 Oeste 0 -- -- 27
2020-07-01 21:00:00 27.7 14 Oeste 35 Oeste 0 -- -- 23
2020-07-01 20:00:00 29.2 18 Oeste 36 Oeste 0 -- -- 22
2020-07-01 19:00:00 29.7 23 Oeste 44 Oeste 0 -- -- 21
2020-07-01 18:00:00 30.1 19 Oeste 38 Oeste 0 -- -- 28
2020-07-01 17:00:00 29.4 21 Oeste 38 Oeste 0 -- -- 33
2020-07-01 16:00:00 29 14 Oeste 32 Oeste 0 -- -- 37
2020-07-01 15:00:00 28.1 15 Oeste 31 Oeste 0 -- -- 40
2020-07-01 14:00:00 27.2 13 Oeste 27 Noroeste 0 -- -- 46
2020-07-01 13:00:00 25.8 15 Oeste 22 Oeste 0 -- -- 52
2020-07-01 12:00:00 24.4 9 Sudoeste 18 Sudoeste 0 -- -- 57
2020-07-01 11:00:00 22.5 9 Sudoeste 17 Oeste 0 -- -- 63
2020-07-01 10:00:00 20.6 7 Sudoeste 12 Oeste 0 -- -- 67
2020-07-01 09:00:00 19.5 5 Norte 8 Norte 0 -- -- 70
2020-07-01 08:00:00 16.9 2 Norte 8 Nordeste 0 -- -- 85
2020-07-01 07:00:00 14.7 3 Norte 9 Sudeste 0 -- -- 87
2020-07-01 06:00:00 15.9 4 Este 13 Este 0 -- -- 82
2020-07-01 05:00:00 16.5 10 Sudeste 18 Este 0 -- -- 80
2020-07-01 04:00:00 16.9 9 Este 20 Este 0 -- -- 80
2020-07-01 03:00:00 15.9 6 Este 11 Este 0 -- -- 87
2020-07-01 02:00:00 16.5 8 Nordeste 11 Este 0 -- -- 86
2020-07-01 01:00:00 17 5 Este 21 Este 0 -- -- 84
2020-07-01 00:00:00 17.2 9 Este 16 Sudeste 0 -- -- 85
2020-06-30 23:00:00 18.4 12 Este 23 Este 0 -- -- 79
2020-06-30 22:00:00 18.4 12 Este 27 Nordeste 0.2 -- -- 78
2020-06-30 21:00:00 19 13 Nordeste 28 Nordeste 1.2 -- -- 73
2020-06-30 20:00:00 20.2 16 Nordeste 31 Noroeste 0 -- -- 75
2020-06-30 19:00:00 21 9 Norte 64 Sur 5.4 -- -- 70
2020-06-30 18:00:00 26.1 20 Sudeste 39 Sudeste 0 -- -- 46
2020-06-30 17:00:00 32.5 10 Oeste 30 Sudoeste 0 -- -- 26
2020-06-30 16:00:00 32.5 11 Sudoeste 30 Sudoeste 0 -- -- 26
2020-06-30 15:00:00 32 11 Sur 23 Sudoeste 0 -- -- 29
2020-06-30 14:00:00 30.9 7 Noroeste 18 Sudeste 0 -- -- 31
2020-06-30 13:00:00 29.3 11 Este 20 Este 0 -- -- 36
2020-06-30 12:00:00 27.1 12 Sudeste 27 Sudeste 0 -- -- 43
2020-06-30 11:00:00 25.2 14 Este 30 Sudeste 0 -- -- 47
2020-06-30 10:00:00 23 14 Este 30 Sudeste 0 -- -- 52
2020-06-30 09:00:00 20.3 14 Este 26 Este 0 -- -- 60
2020-06-30 08:00:00 17.7 11 Este 20 Este 0 -- -- 62
2020-06-30 07:00:00 14.9 8 Este 14 Este 0 -- -- 76
2020-06-30 06:00:00 15.7 5 Este 15 Este 0 -- -- 75
2020-06-30 05:00:00 15.9 9 Este 14 Este 0 -- -- 81
2020-06-30 04:00:00 16.9 10 Sudeste 17 Sudeste 0 -- -- 79
2020-06-30 03:00:00 17.4 9 Este 10 Sudeste 0 -- -- 79
2020-06-30 02:00:00 18.4 7 Este 11 Sudeste 0 -- -- 76
2020-06-30 01:00:00 19.5 5 Este 11 Sudeste 0 -- -- 70
2020-06-30 00:00:00 20.7 7 Este 19 Sudeste 0 -- -- 60
2020-06-29 23:00:00 22.1 8 Este 17 Nordeste 0 -- -- 55
2020-06-29 22:00:00 24 12 Norte 23 Norte 0 -- -- 51
2020-06-29 21:00:00 27.5 14 Norte 23 Norte 0 -- -- 42
2020-06-29 20:00:00 29.3 10 Norte 22 Noroeste 0 -- -- 35
2020-06-29 19:00:00 30.2 14 Noroeste 28 Noroeste 0 -- -- 30
2020-06-29 18:00:00 30.5 12 Oeste 33 Oeste 0 -- -- 30
2020-06-29 17:00:00 30.1 13 Oeste 30 Oeste 0 -- -- 32
2020-06-29 16:00:00 29.6 13 Oeste 30 Sudoeste 0 -- -- 33
2020-06-29 15:00:00 28.5 17 Noroeste 31 Noroeste 0 -- -- 36
2020-06-29 14:00:00 27.2 10 Sudoeste 23 Oeste 0 -- -- 44
2020-06-29 13:00:00 25.7 10 Oeste 21 Oeste 0 -- -- 47
2020-06-29 12:00:00 24.4 5 Oeste 16 Sudoeste 0 -- -- 51
2020-06-29 11:00:00 22.4 8 Sur 15 Oeste 0 -- -- 57
2020-06-29 10:00:00 20.8 7 Sudoeste 12 Sudoeste 0 -- -- 61
2020-06-29 09:00:00 19.5 3 Oeste 6 Oeste 0 -- -- 67
2020-06-29 08:00:00 17.5 2 Sudeste 5 Sudeste 0 -- -- 75
2020-06-29 07:00:00 15.4 3 Sudeste 6 Sudoeste 0 -- -- 81
2020-06-29 06:00:00 15.9 3 Sudoeste 8 Sudeste 0 -- -- 79
2020-06-29 05:00:00 16.4 4 Sudeste 7 Sudeste 0 -- -- 79
2020-06-29 04:00:00 17.3 4 Sudeste 12 Sudeste 0 -- -- 75
2020-06-29 03:00:00 17.5 6 Sudeste 14 Sudeste 0 -- -- 72
2020-06-29 02:00:00 18 8 Sudeste 14 Sudeste 0 -- -- 59
2020-06-29 01:00:00 19.8 4 Nordeste 6 Nordeste 0 -- -- 54
2020-06-29 00:00:00 21.3 3 Norte 6 Noroeste 0 -- -- 48
2020-06-28 23:00:00 22.8 6 Noroeste 14 Oeste 0 -- -- 43
2020-06-28 22:00:00 25.4 10 Oeste 13 Oeste 0 -- -- 36
2020-06-28 21:00:00 27.8 10 Oeste 21 Noroeste 0 -- -- 33
2020-06-28 20:00:00 28.7 11 Noroeste 27 Noroeste 0 -- -- 31
2020-06-28 19:00:00 29 11 Noroeste 25 Oeste 0 -- -- 32
2020-06-28 18:00:00 28.5 11 Oeste 26 Oeste 0 -- -- 32
2020-06-28 17:00:00 28.8 11 Sudoeste 31 Oeste 0 -- -- 33
2020-06-28 16:00:00 28.2 6 Oeste 28 Sudoeste 0 -- -- 34
2020-06-28 15:00:00 27.1 14 Sudoeste 26 Sudoeste 0 -- -- 37
2020-06-28 14:00:00 25.8 9 Noroeste 22 Sudoeste 0 -- -- 42
2020-06-28 13:00:00 24.7 11 Oeste 21 Noroeste 0 -- -- 45
2020-06-28 12:00:00 23.5 8 Oeste 27 Noroeste 0 -- -- 50
2020-06-28 11:00:00 21.7 7 Noroeste 14 Noroeste 0 -- -- 55
2020-06-28 10:00:00 20.1 3 Norte 8 Oeste 0 -- -- 58
2020-06-28 09:00:00 18.1 4 Sudoeste 9 Oeste 0 -- -- 67
2020-06-28 08:00:00 15.3 0 Calma 3 Nordeste 0 -- -- 77
2020-06-28 07:00:00 12.9 0 Calma -- -- 0 -- -- 81
2020-06-28 06:00:00 13.6 3 Noroeste 7 Noroeste 0 -- -- 79
2020-06-28 05:00:00 14.1 6 Noroeste 12 Oeste 0 -- -- 78
2020-06-28 04:00:00 15.5 6 Oeste 12 Sudoeste 0 -- -- 74
2020-06-28 03:00:00 16.3 7 Sudoeste 11 Sudoeste 0 -- -- 69
2020-06-28 02:00:00 17.8 6 Oeste 10 Oeste 0 -- -- 63
2020-06-28 01:00:00 18.7 7 Oeste 9 Oeste 0 -- -- 60
2020-06-28 00:00:00 19.7 3 Noroeste 6 Noroeste 0 -- -- 56
2020-06-27 23:00:00 21.1 3 Noroeste 12 Oeste 0 -- -- 52
2020-06-27 22:00:00 22.9 6 Oeste 24 Oeste 0 -- -- 46
2020-06-27 21:00:00 25.4 9 Oeste 26 Oeste 0 -- -- 40
2020-06-27 20:00:00 26.1 9 Oeste 30 Oeste 0 -- -- 37
2020-06-27 19:00:00 26.3 9 Oeste 28 Oeste 0 -- -- 38
2020-06-27 18:00:00 25.6 13 Noroeste 30 Oeste 0 -- -- 40
2020-06-27 17:00:00 26.1 11 Oeste 30 Oeste 0 -- -- 39
2020-06-27 16:00:00 25.2 8 Oeste 27 Oeste 0 -- -- 39
2020-06-27 15:00:00 24.5 14 Oeste 29 Noroeste 0 -- -- 43
2020-06-27 14:00:00 23.7 11 Oeste 28 Oeste 0 -- -- 46
2020-06-27 13:00:00 22 13 Oeste 28 Oeste 0 -- -- 52
2020-06-27 12:00:00 21.3 16 Oeste 30 Oeste 0 -- -- 55
2020-06-27 11:00:00 19.6 13 Oeste 26 Oeste 0 -- -- 60
2020-06-27 10:00:00 17.5 10 Oeste 17 Sudoeste 0 -- -- 69
2020-06-27 09:00:00 15.8 12 Sudoeste 19 Sudoeste 0 -- -- 74
2020-06-27 08:00:00 14.8 6 Oeste 11 Sudoeste 0 -- -- 74
2020-06-27 07:00:00 13.7 6 Oeste 10 Oeste 0 -- -- 76
2020-06-27 06:00:00 13.8 4 Sudoeste 9 Sudoeste 0 -- -- 74
2020-06-27 05:00:00 14.5 6 Sudoeste 14 Oeste 0 -- -- 67
2020-06-27 04:00:00 14.6 6 Oeste 9 Sudoeste 0 -- -- 60
2020-06-27 03:00:00 15.6 9 Sudoeste 13 Oeste 0 -- -- 56
2020-06-27 02:00:00 16 6 Oeste 11 Oeste 0 -- -- 51
2020-06-27 01:00:00 17.5 9 Oeste 14 Oeste 0 -- -- 44
2020-06-27 00:00:00 19.3 12 Oeste 20 Oeste 0 -- -- 38
2020-06-26 23:00:00 20.3 14 Oeste 20 Oeste 0 -- -- 33
2020-06-26 22:00:00 21.3 9 Oeste 24 Oeste 0 -- -- 34
2020-06-26 21:00:00 24.5 17 Oeste 31 Oeste 0 -- -- 29
2020-06-26 20:00:00 25.7 14 Oeste 26 Oeste 0 -- -- 28
2020-06-26 19:00:00 26.3 17 Oeste 29 Oeste 0 -- -- 30
2020-06-26 18:00:00 27.2 13 Oeste 32 Oeste 0 -- -- 32
2020-06-26 17:00:00 27.5 12 Sudoeste 27 Oeste 0 -- -- 31
2020-06-26 16:00:00 27.3 14 Oeste 26 Oeste 0 -- -- 30
2020-06-26 15:00:00 25.8 16 Oeste 32 Oeste 0 -- -- 31
2020-06-26 14:00:00 26.5 15 Oeste 32 Sudoeste 0 -- -- 35
2020-06-26 13:00:00 24.6 17 Oeste 31 Sudoeste 0 -- -- 42
2020-06-26 12:00:00 22.5 11 Sudoeste 18 Oeste 0 -- -- 58
2020-06-26 11:00:00 22.3 10 Sur 19 Este 0 -- -- 56
2020-06-26 10:00:00 20.6 13 Sudeste 25 Este 0 -- -- 61
2020-06-26 09:00:00 18.5 14 Sudeste 24 Este 0 -- -- 71
2020-06-26 08:00:00 16.6 11 Sudeste 18 Este 0 -- -- 78
2020-06-26 07:00:00 16.4 12 Sudeste 31 Este 0 -- -- 78
2020-06-26 06:00:00 16.5 16 Este 31 Este 0 -- -- 79
2020-06-26 05:00:00 16.9 21 Este 36 Este 0 -- -- 78
2020-06-26 04:00:00 17.3 21 Este 42 Sudeste 0 -- -- 77
2020-06-26 03:00:00 17.2 19 Este 33 Sudeste 0 -- -- 77
2020-06-26 02:00:00 17.4 20 Sudeste 32 Sudeste 0 -- -- 74
2020-06-26 01:00:00 17.3 15 Sudeste 28 Sudeste 0 -- -- 73
2020-06-26 00:00:00 17.6 13 Sudeste 25 Sudeste 0 -- -- 70
2020-06-25 23:00:00 17.6 8 Sudeste 21 Sudeste 0 -- -- 72
2020-06-25 22:00:00 18.4 10 Sudeste 18 Sudeste 0 -- -- 72
2020-06-25 21:00:00 19.3 9 Este 23 Sudeste 0 -- -- 65
2020-06-25 20:00:00 19.9 3 Sur 23 Este 0 -- -- 66
2020-06-25 19:00:00 18.4 13 Este 34 Oeste 0.6 -- -- 69
2020-06-25 18:00:00 22.3 9 Sudoeste 39 Sur 0.2 -- -- 47
2020-06-25 17:00:00 22.9 14 Este 32 Sudeste 0.4 -- -- 50
2020-06-25 16:00:00 27.2 8 Sur 20 Sur 0 -- -- 43
2020-06-25 15:00:00 28.8 6 Noroeste 18 Este 0 -- -- 37
2020-06-25 14:00:00 26.8 10 Este 22 Este 0 -- -- 40
2020-06-25 13:00:00 24.2 13 Este 22 Sudeste 0 -- -- 50
2020-06-25 12:00:00 21.4 9 Este 20 Este 0.4 -- -- 62
2020-06-25 11:00:00 21.5 11 Este 26 Este 0 -- -- 60
2020-06-25 10:00:00 23.1 14 Este 37 Sudeste 0 -- -- 50
2020-06-25 09:00:00 21.6 20 Sudeste 44 Este 0 -- -- 52
2020-06-25 08:00:00 19.7 22 Sudeste 40 Sudeste 0 -- -- 57
2020-06-25 07:00:00 17.3 19 Este 29 Este 0 -- -- 63
2020-06-25 06:00:00 16.5 16 Sudeste 26 Sudeste 0 -- -- 66
2020-06-25 05:00:00 17.2 6 Este 15 Este 0 -- -- 65
2020-06-25 04:00:00 18.3 9 Nordeste 18 Este 0 -- -- 62
2020-06-25 03:00:00 18.9 12 Este 23 Este 0 -- -- 59
2020-06-25 02:00:00 18.3 6 Nordeste 24 Oeste 0 -- -- 62
2020-06-25 01:00:00 19.7 8 Nordeste 12 Nordeste 0 -- -- 56
2020-06-25 00:00:00 19.8 7 Nordeste 15 Nordeste 0 -- -- 58
2020-06-24 23:00:00 21.7 9 Nordeste 12 Nordeste 0 -- -- 50
2020-06-24 22:00:00 23.8 4 Nordeste 14 Este 0 -- -- 41
2020-06-24 21:00:00 26.7 2 Noroeste 10 Oeste 0 -- -- 34
2020-06-24 20:00:00 28.8 6 Oeste 11 Oeste 0 -- -- 30
2020-06-24 19:00:00 29.1 5 Este 12 Este 0 -- -- 27
2020-06-24 18:00:00 28.5 5 Norte 17 Sur 0 -- -- 27
2020-06-24 17:00:00 28.5 11 Sur 26 Sudeste 0 -- -- 30
2020-06-24 16:00:00 26 20 Sudeste 34 Sur 0 -- -- 35
2020-06-24 15:00:00 26.6 32 Sur 46 Sudeste 0 -- -- 38
2020-06-24 14:00:00 27.6 18 Sudeste 35 Sudeste 0 -- -- 40
2020-06-24 13:00:00 26.3 13 Sudeste 24 Este 0 -- -- 43
2020-06-24 12:00:00 24 15 Este 28 Este 0 -- -- 51
2020-06-24 11:00:00 21.3 10 Sur 16 Sur 0 -- -- 62
2020-06-24 10:00:00 21.5 6 Este 20 Sudeste 0 -- -- 59
2020-06-24 09:00:00 21.8 13 Sudeste 25 Este 0 -- -- 55
2020-06-24 08:00:00 20.4 11 Este 19 Este 0 -- -- 56
2020-06-24 07:00:00 19.2 6 Este 24 Este 0 -- -- 59
2020-06-24 06:00:00 17.9 7 Este 18 Este 0.2 -- -- 63
2020-06-24 05:00:00 18.1 12 Este 20 Sudeste 0 -- -- 58
2020-06-24 04:00:00 17.6 7 Este 13 Este 0 -- -- 59
2020-06-24 03:00:00 18.6 4 Sudeste 14 Sur 0 -- -- 57
2020-06-24 02:00:00 19.2 4 Nordeste 26 Sudeste 0 -- -- 54
2020-06-24 01:00:00 19.8 10 Este 24 Sudeste 0 -- -- 51
2020-06-24 00:00:00 21.4 13 Sudeste 26 Sudeste 0 -- -- 47
2020-06-23 23:00:00 20.9 15 Norte 37 Este 0 -- -- 51
2020-06-23 22:00:00 24.3 27 Este 64 Sudoeste 0 -- -- 35
2020-06-23 21:00:00 23 12 Oeste 43 Sudoeste 0.8 -- -- 45
2020-06-23 20:00:00 27.5 17 Norte 30 Norte 0 -- -- 38
2020-06-23 19:00:00 31.4 5 Norte 28 Noroeste 0 -- -- 22
2020-06-23 18:00:00 33.8 10 Oeste 30 Noroeste 0 -- -- 20
2020-06-23 17:00:00 33.4 15 Noroeste 28 Noroeste 0 -- -- 20
2020-06-23 16:00:00 32.5 14 Oeste 32 Oeste 0 -- -- 21
2020-06-23 15:00:00 32.2 5 Sudeste 45 Sudoeste 0 -- -- 22
2020-06-23 14:00:00 31.4 10 Oeste 20 Sudoeste 0 -- -- 25
2020-06-23 13:00:00 30.5 7 Sudoeste 16 Sur 0 -- -- 26
2020-06-23 12:00:00 28.9 8 Este 19 Sudeste 0 -- -- 35
2020-06-23 11:00:00 26.5 12 Este 23 Sudeste 0 -- -- 39
2020-06-23 10:00:00 24.3 13 Sudeste 28 Este 0 -- -- 42
2020-06-23 09:00:00 22.3 11 Este 21 Este 0 -- -- 44
2020-06-23 08:00:00 20 12 Este 25 Este 0 -- -- 46
2020-06-23 07:00:00 18.3 14 Este 25 Este 0 -- -- 50
2020-06-23 06:00:00 17.1 11 Este 16 Este 0 -- -- 58
2020-06-23 05:00:00 16.8 12 Este 18 Este 0 -- -- 59
2020-06-23 04:00:00 17.2 9 Este 20 Este 0 -- -- 59
2020-06-23 03:00:00 17.1 8 Este 16 Este 0 -- -- 58
2020-06-23 02:00:00 17.8 12 Este 18 Este 0 -- -- 55
2020-06-23 01:00:00 18.2 10 Sudeste 13 Sudeste 0 -- -- 56
2020-06-23 00:00:00 20.2 8 Sudeste 12 Este 0 -- -- 51
2020-06-22 23:00:00 22.6 8 Este 21 Este 0 -- -- 44
2020-06-22 22:00:00 24.6 9 Norte 15 Norte 0 -- -- 42
2020-06-22 21:00:00 29 7 Sur 13 Sur 0 -- -- 25
2020-06-22 20:00:00 30.7 4 Oeste 13 Oeste 0 -- -- 23
2020-06-22 19:00:00 30.5 9 Sur 16 Sur 0 -- -- 23
2020-06-22 18:00:00 30.3 4 Oeste 25 Sudoeste 0 -- -- 24
2020-06-22 17:00:00 30 8 Sur 19 Sudoeste 0 -- -- 24
2020-06-22 16:00:00 29.7 7 Norte 22 Nordeste 0 -- -- 27
2020-06-22 15:00:00 28.5 7 Sur 21 Este 0 -- -- 30
2020-06-22 14:00:00 27.1 9 Nordeste 18 Este 0 -- -- 32
2020-06-22 13:00:00 25.7 11 Este 21 Este 0 -- -- 37
2020-06-22 12:00:00 23.9 6 Sudeste 18 Sudeste 0 -- -- 46
2020-06-22 11:00:00 21.5 7 Sudeste 18 Sudeste 0 -- -- 50
2020-06-22 10:00:00 18.8 12 Este 19 Sudeste 0 -- -- 60
2020-06-22 09:00:00 16.1 13 Este 21 Sudeste 0 -- -- 70
2020-06-22 08:00:00 14.2 11 Este 21 Este 0 -- -- 77
2020-06-22 07:00:00 12.4 9 Este 15 Sudeste 0 -- -- 82
2020-06-22 06:00:00 12.6 9 Este 15 Este 0 -- -- 81
2020-06-22 05:00:00 13.1 11 Este 16 Sudeste 0 -- -- 79
2020-06-22 04:00:00 13.8 9 Este 15 Este 0 -- -- 77
2020-06-22 03:00:00 14.6 10 Este 14 Este 0 -- -- 74
2020-06-22 02:00:00 15.7 6 Nordeste 14 Sudeste 0 -- -- 71
2020-06-22 01:00:00 17.1 9 Sudeste 15 Sudeste 0 -- -- 65
2020-06-22 00:00:00 18.9 6 Sudeste 13 Este 0 -- -- 58
2020-06-21 23:00:00 20 8 Norte 18 Norte 0 -- -- 57
2020-06-21 22:00:00 22.6 10 Norte 15 Norte 0 -- -- 46
2020-06-21 21:00:00 26.5 9 Noroeste 20 Noroeste 0 -- -- 26
2020-06-21 20:00:00 27.8 10 Noroeste 26 Noroeste 0 -- -- 23
2020-06-21 19:00:00 28.2 14 Noroeste 27 Noroeste 0 -- -- 22
2020-06-21 18:00:00 28.8 14 Oeste 25 Oeste 0 -- -- 23
2020-06-21 17:00:00 28.5 18 Noroeste 31 Oeste 0 -- -- 19
2020-06-21 16:00:00 27.7 10 Oeste 27 Oeste 0 -- -- 21
2020-06-21 15:00:00 26.8 13 Oeste 27 Oeste 0 -- -- 22
2020-06-21 14:00:00 26 14 Noroeste 29 Noroeste 0 -- -- 28
2020-06-21 13:00:00 24.2 15 Oeste 28 Noroeste 0 -- -- 33
2020-06-21 12:00:00 23.3 12 Oeste 21 Oeste 0 -- -- 33
2020-06-21 11:00:00 21.1 8 Sudoeste 17 Oeste 0 -- -- 45
2020-06-21 10:00:00 18.5 6 Sudoeste 12 Oeste 0 -- -- 51
2020-06-21 09:00:00 16.7 4 Noroeste 11 Sudoeste 0 -- -- 53
2020-06-21 08:00:00 13.8 2 Norte 5 Norte 0 -- -- 63
2020-06-21 07:00:00 10.3 2 Norte 5 Noroeste 0 -- -- 74
2020-06-21 06:00:00 12.7 2 Oeste 5 Oeste 0 -- -- 62
2020-06-21 05:00:00 12 3 Norte 6 Oeste 0 -- -- 66
2020-06-21 04:00:00 13.4 2 Sudoeste 8 Sudoeste 0 -- -- 58
2020-06-21 03:00:00 14.9 2 Este 8 Sur 0 -- -- 53
2020-06-21 02:00:00 16.1 6 Sudoeste 9 Sudoeste 0 -- -- 51
2020-06-21 01:00:00 17.5 4 Oeste 9 Nordeste 0 -- -- 47
2020-06-21 00:00:00 18.7 6 Nordeste 11 Norte 0 -- -- 43
2020-06-20 23:00:00 20.4 5 Norte 15 Oeste 0 -- -- 39
2020-06-20 22:00:00 23.3 7 Oeste 15 Oeste 0 -- -- 32
2020-06-20 21:00:00 26.1 8 Oeste 23 Noroeste 0 -- -- 26
2020-06-20 20:00:00 27.1 12 Oeste 30 Noroeste 0 -- -- 25
2020-06-20 19:00:00 27.5 14 Oeste 30 Noroeste 0 -- -- 26
2020-06-20 18:00:00 27.6 14 Oeste 27 Oeste 0 -- -- 28
2020-06-20 17:00:00 27.4 10 Oeste 28 Sudoeste 0 -- -- 29
2020-06-20 16:00:00 26.5 15 Sudoeste 27 Oeste 0 -- -- 27
2020-06-20 15:00:00 25.6 14 Sudoeste 30 Sudoeste 0 -- -- 30
2020-06-20 14:00:00 24.8 11 Oeste 29 Oeste 0 -- -- 34
2020-06-20 13:00:00 23.6 15 Oeste 27 Noroeste 0 -- -- 37
2020-06-20 12:00:00 21.9 9 Oeste 24 Oeste 0 -- -- 43
2020-06-20 11:00:00 19.9 7 Oeste 17 Sudoeste 0 -- -- 47
2020-06-20 10:00:00 17.7 8 Oeste 14 Oeste 0 -- -- 51
2020-06-20 09:00:00 15.7 5 Oeste 10 Oeste 0 -- -- 56
2020-06-20 08:00:00 13.2 2 Norte 6 Nordeste 0 -- -- 75
2020-06-20 07:00:00 10.1 4 Nordeste 6 Nordeste 0 -- -- 80
2020-06-20 06:00:00 11.9 5 Este 8 Este 0 -- -- 77
2020-06-20 05:00:00 11.4 2 Nordeste 9 Este 0 -- -- 70
2020-06-20 04:00:00 13 8 Este 10 Este 0 -- -- 64
2020-06-20 03:00:00 13.2 6 Sudeste 12 Sudeste 0 -- -- 54
2020-06-20 02:00:00 13.8 9 Sudeste 13 Sudeste 0 -- -- 49
2020-06-20 01:00:00 15.7 6 Sur 7 Sudeste 0 -- -- 43
2020-06-20 00:00:00 17.1 3 Nordeste 6 Norte 0 -- -- 39
2020-06-19 23:00:00 19 3 Noroeste 10 Oeste 0 -- -- 35
2020-06-19 22:00:00 21.3 6 Oeste 13 Noroeste 0 -- -- 30
2020-06-19 21:00:00 24.1 7 Oeste 22 Oeste 0 -- -- 26
2020-06-19 20:00:00 25.2 12 Oeste 31 Oeste 0 -- -- 23
2020-06-19 19:00:00 25.4 17 Noroeste 27 Noroeste 0 -- -- 25
2020-06-19 18:00:00 25.7 12 Oeste 26 Oeste 0 -- -- 28
2020-06-19 17:00:00 25.1 15 Sudoeste 27 Oeste 0 -- -- 30
2020-06-19 16:00:00 25.2 13 Sudoeste 30 Oeste 0 -- -- 29
2020-06-19 15:00:00 23.7 14 Oeste 32 Oeste 0 -- -- 33
2020-06-19 14:00:00 22.8 16 Oeste 32 Sudoeste 0 -- -- 35
2020-06-19 13:00:00 21.8 13 Sudoeste 25 Sudoeste 0 -- -- 40
2020-06-19 12:00:00 20.2 10 Sudoeste 19 Sudoeste 0 -- -- 47
2020-06-19 11:00:00 18.1 7 Oeste 16 Sudoeste 0 -- -- 52
2020-06-19 10:00:00 16.9 4 Sudeste 17 Sur 0 -- -- 57
2020-06-19 09:00:00 14.5 13 Sudeste 19 Sudeste 0 -- -- 67
2020-06-19 08:00:00 12.9 9 Sudeste 15 Este 0 -- -- 74
2020-06-19 07:00:00 10.8 11 Este 19 Este 0 -- -- 81
2020-06-19 06:00:00 9.6 6 Este 13 Este 0 -- -- 86
2020-06-19 05:00:00 9.3 3 Este 12 Sudeste 0 -- -- 85
2020-06-19 04:00:00 10.1 2 Nordeste 7 Sudeste 0 -- -- 82
2020-06-19 03:00:00 11.1 3 Este 12 Este 0 -- -- 79
2020-06-19 02:00:00 12.5 6 Sudeste 20 Sudeste 0 -- -- 74
2020-06-19 01:00:00 13.5 11 Sudeste 20 Sudeste 0 -- -- 72
2020-06-19 00:00:00 14.9 10 Sudeste 23 Este 0 -- -- 68
2020-06-18 23:00:00 15.3 10 Este 16 Este 0 -- -- 62
2020-06-18 22:00:00 17.9 8 Nordeste 14 Norte 0 -- -- 49
2020-06-18 21:00:00 20.2 8 Norte 23 Noroeste 0 -- -- 41
2020-06-18 20:00:00 21.4 13 Noroeste 30 Noroeste 0 -- -- 38
2020-06-18 19:00:00 22.3 12 Noroeste 32 Noroeste 0 -- -- 37
2020-06-18 18:00:00 22.6 17 Noroeste 29 Oeste 0 -- -- 36
2020-06-18 17:00:00 22.9 15 Oeste 32 Noroeste 0 -- -- 36
2020-06-18 16:00:00 22.2 12 Oeste 28 Oeste 0 -- -- 38
2020-06-18 15:00:00 20.9 13 Oeste 31 Sudoeste 0 -- -- 42
2020-06-18 14:00:00 20.6 8 Oeste 25 Oeste 0 -- -- 43
2020-06-18 13:00:00 20 10 Noroeste 27 Sudeste 0 -- -- 46
2020-06-18 12:00:00 18.4 6 Oeste 17 Noroeste 0 -- -- 51
2020-06-18 11:00:00 17 5 Sudeste 13 Sudoeste 0 -- -- 57
2020-06-18 10:00:00 15.4 10 Sur 21 Sudeste 0 -- -- 63
2020-06-18 09:00:00 13.5 12 Sudeste 23 Sudeste 0 -- -- 72
2020-06-18 08:00:00 11.7 8 Sudeste 14 Este 0 -- -- 78
2020-06-18 07:00:00 10.2 5 Sudeste 16 Este 0 -- -- 83
2020-06-18 06:00:00 10.7 10 Este 21 Sudeste 0 -- -- 81
2020-06-18 05:00:00 11.1 13 Este 22 Este 0 -- -- 78
2020-06-18 04:00:00 10.9 8 Este 16 Este 0 -- -- 79
2020-06-18 03:00:00 11 7 Sudeste 16 Sudeste 0 -- -- 79
2020-06-18 02:00:00 12.1 9 Sudeste 31 Sudeste 0 -- -- 73
2020-06-18 01:00:00 13.9 14 Sudeste 25 Sudeste 0 -- -- 66
2020-06-18 00:00:00 13.8 8 Este 15 Este 0 -- -- 61
2020-06-17 23:00:00 13.8 9 Este 11 Nordeste 0 -- -- 59
2020-06-17 22:00:00 15.9 5 Nordeste 13 Norte 0 -- -- 53
2020-06-17 21:00:00 17.6 4 Norte 16 Noroeste 0 -- -- 45
2020-06-17 20:00:00 18.9 8 Norte 19 Noroeste 0 -- -- 39
2020-06-17 19:00:00 18.5 7 Noroeste 22 Oeste 0 -- -- 41
2020-06-17 18:00:00 18.8 8 Noroeste 25 Oeste 0 -- -- 41
2020-06-17 17:00:00 19.1 9 Noroeste 27 Noroeste 0 -- -- 40
2020-06-17 16:00:00 20.3 12 Noroeste 24 Oeste 0 -- -- 40
2020-06-17 15:00:00 18.3 9 Noroeste 23 Oeste 0 -- -- 43
2020-06-17 14:00:00 16.6 11 Noroeste 21 Noroeste 0 -- -- 51
2020-06-17 13:00:00 15.5 10 Oeste 21 Oeste 0 -- -- 55
2020-06-17 12:00:00 15.6 9 Sudoeste 15 Sur 0 -- -- 60
2020-06-17 11:00:00 11.8 5 Sur 11 Sur 0 -- -- 80
2020-06-17 10:00:00 9.8 4 Sur 8 Sur 0 -- -- 89
2020-06-17 09:00:00 9 3 Sudoeste 9 Sur 0 -- -- 94
2020-06-17 08:00:00 8.8 3 Sur 8 Sur 0 -- -- 93
2020-06-17 07:00:00 8.6 2 Sur 6 Sudoeste 0 -- -- 94
2020-06-17 06:00:00 8.8 5 Sur 8 Sur 0 -- -- 94
2020-06-17 05:00:00 8.5 3 Norte 9 Sudoeste 0 -- -- 94
2020-06-17 04:00:00 8.7 8 Sudoeste 13 Sudoeste 0 -- -- 91
2020-06-17 03:00:00 9.8 5 Sur 8 Sur 0 -- -- 86
2020-06-17 02:00:00 11.2 2 Oeste 6 Sur 0 -- -- 83
2020-06-17 01:00:00 11.7 3 Sur 5 Este 0 -- -- 80
2020-06-17 00:00:00 12.5 0 Calma 4 Nordeste 0 -- -- 72
2020-06-16 23:00:00 13.5 0 Calma 7 Norte 0 -- -- 71
2020-06-16 22:00:00 13.9 8 Norte 22 Oeste 0 -- -- 71
2020-06-16 21:00:00 15.7 16 Oeste 30 Oeste 0 -- -- 56
2020-06-16 20:00:00 16.6 21 Oeste 38 Oeste 0 -- -- 64
2020-06-16 19:00:00 16.7 13 Oeste 37 Sudoeste 0 -- -- 59
2020-06-16 18:00:00 17.1 24 Sudoeste 44 Oeste 0 -- -- 59
2020-06-16 17:00:00 16.9 18 Oeste 46 Oeste 0 -- -- 56
2020-06-16 16:00:00 19.4 14 Oeste 32 Oeste 0 -- -- 43
2020-06-16 15:00:00 18.6 14 Oeste 27 Oeste 0 -- -- 47
2020-06-16 14:00:00 17.9 15 Oeste 27 Oeste 0 -- -- 50
2020-06-16 13:00:00 16.8 16 Oeste 32 Oeste 0 -- -- 51
2020-06-16 12:00:00 16.8 16 Oeste 31 Oeste 0 -- -- 52
2020-06-16 11:00:00 15.1 14 Oeste 25 Oeste 0 -- -- 60
2020-06-16 10:00:00 13.6 14 Oeste 23 Oeste 0 -- -- 67
2020-06-16 09:00:00 12.1 9 Oeste 15 Oeste 0 -- -- 77
2020-06-16 08:00:00 10.8 5 Oeste 10 Sudoeste 0 -- -- 84
2020-06-16 07:00:00 10.3 5 Oeste 10 Sudoeste 0 -- -- 85
2020-06-16 06:00:00 10.4 7 Sudoeste 10 Sudoeste 0 -- -- 84
2020-06-16 05:00:00 11 4 Sudoeste 9 Sudoeste 0 -- -- 81
2020-06-16 04:00:00 11.7 5 Sudoeste 16 Sudoeste 0 -- -- 77
2020-06-16 03:00:00 12.7 8 Sudoeste 17 Sudoeste 0 -- -- 74
2020-06-16 02:00:00 13.3 6 Sudoeste 15 Sudoeste 0 -- -- 71
2020-06-16 01:00:00 14.1 7 Oeste 19 Oeste 0 -- -- 68
2020-06-16 00:00:00 14.9 10 Oeste 16 Sudoeste 0 -- -- 64
2020-06-15 23:00:00 15.6 4 Oeste 11 Oeste 0 -- -- 63
2020-06-15 22:00:00 16.6 6 Noroeste 14 Noroeste 0 -- -- 58
2020-06-15 21:00:00 17.9 9 Noroeste 26 Noroeste 0 -- -- 50
2020-06-15 20:00:00 18.7 13 Noroeste 24 Oeste 0 -- -- 47
2020-06-15 19:00:00 19.4 15 Noroeste 27 Noroeste 0 -- -- 48
2020-06-15 18:00:00 20.4 13 Noroeste 27 Noroeste 0 -- -- 46
2020-06-15 17:00:00 19.9 11 Oeste 24 Oeste 0 -- -- 48
2020-06-15 16:00:00 19.6 14 Oeste 23 Oeste 0 -- -- 47
2020-06-15 15:00:00 18.7 10 Noroeste 23 Noroeste 0 -- -- 50
2020-06-15 14:00:00 18.6 12 Oeste 25 Oeste 0 -- -- 53
2020-06-15 13:00:00 17.5 9 Noroeste 22 Noroeste 0 -- -- 53
2020-06-15 12:00:00 15.9 10 Oeste 21 Oeste 0 -- -- 58
2020-06-15 11:00:00 15.4 7 Noroeste 19 Oeste 0 -- -- 60
2020-06-15 10:00:00 13.6 11 Noroeste 17 Noroeste 0 -- -- 65
2020-06-15 09:00:00 12.3 6 Noroeste 10 Noroeste 0 -- -- 73
2020-06-15 08:00:00 10.4 4 Noroeste 12 Oeste 0 -- -- 81
2020-06-15 07:00:00 9.3 9 Oeste 14 Oeste 0 -- -- 83
2020-06-15 06:00:00 9.4 6 Oeste 14 Oeste 0 -- -- 84
2020-06-15 05:00:00 10.5 6 Oeste 13 Oeste 0 -- -- 80
2020-06-15 04:00:00 11 9 Oeste 14 Oeste 0 -- -- 77
2020-06-15 03:00:00 11.7 9 Sudoeste 14 Sudoeste 0 -- -- 74
2020-06-15 02:00:00 12.2 8 Sudoeste 12 Sudoeste 0 -- -- 70
2020-06-15 01:00:00 13.1 9 Oeste 13 Sudoeste 0 -- -- 65
2020-06-15 00:00:00 14.2 4 Oeste 9 Oeste 0 -- -- 60
2020-06-14 23:00:00 14.3 0 Calma 6 Noroeste 0 -- -- 58
2020-06-14 22:00:00 15.3 5 Noroeste 13 Noroeste 0 -- -- 55
2020-06-14 21:00:00 16.9 12 Noroeste 24 Noroeste 0 -- -- 48
2020-06-14 20:00:00 17.9 14 Noroeste 32 Noroeste 0 -- -- 44
2020-06-14 19:00:00 18.7 15 Oeste 25 Noroeste 0 -- -- 43
2020-06-14 18:00:00 18.9 14 Oeste 58 Oeste 0 -- -- 42
2020-06-14 17:00:00 19.2 16 Oeste 28 Oeste 0 -- -- 40
2020-06-14 16:00:00 19.5 14 Noroeste 30 Oeste 0 -- -- 43
2020-06-14 15:00:00 18.5 15 Noroeste 30 Oeste 0 -- -- 48
2020-06-14 14:00:00 18.4 14 Oeste 27 Oeste 0 -- -- 49
2020-06-14 13:00:00 16.6 13 Oeste 24 Oeste 0 -- -- 52
2020-06-14 12:00:00 15.5 12 Oeste 19 Oeste 0 -- -- 59
2020-06-14 11:00:00 14.1 8 Oeste 17 Sudoeste 0 -- -- 60
2020-06-14 10:00:00 13 6 Sudoeste 11 Oeste 0 -- -- 67
2020-06-14 09:00:00 11 4 Sudoeste 6 Sudoeste 0 -- -- 77
2020-06-14 08:00:00 9 0 Calma 4 Norte 0 -- -- 89
2020-06-14 07:00:00 8.7 2 Oeste 3 Oeste 0 -- -- 85
2020-06-14 06:00:00 9.3 0 Calma 4 Sudoeste 0 -- -- 84
2020-06-14 05:00:00 9.4 4 Sudoeste 6 Sudeste 0 -- -- 84
2020-06-14 04:00:00 10.3 3 Oeste 8 Noroeste 0 -- -- 79
2020-06-14 03:00:00 10.5 4 Noroeste 6 Noroeste 0 -- -- 83
2020-06-14 02:00:00 11.2 0 Calma 7 Oeste 0 -- -- 78
2020-06-14 01:00:00 12 6 Oeste 12 Oeste 0 -- -- 72
2020-06-14 00:00:00 12.2 3 Noroeste 10 Noroeste 0 -- -- 72
2020-06-13 23:00:00 13.3 3 Noroeste 10 Oeste 0 -- -- 68
2020-06-13 22:00:00 14.1 7 Noroeste 23 Noroeste 0 -- -- 63
2020-06-13 21:00:00 15.8 6 Oeste 21 Oeste 0 -- -- 53
2020-06-13 20:00:00 17.4 13 Oeste 26 Noroeste 0 -- -- 43
2020-06-13 19:00:00 17 14 Oeste 26 Sudoeste 0 -- -- 44
2020-06-13 18:00:00 18.5 13 Oeste 27 Oeste 0 -- -- 40
2020-06-13 17:00:00 17.4 13 Oeste 27 Sudoeste 0 -- -- 46
2020-06-13 16:00:00 17.4 16 Oeste 31 Sudoeste 0 -- -- 45
2020-06-13 15:00:00 16.2 14 Oeste 33 Sudoeste 0 -- -- 50
2020-06-13 14:00:00 15.2 17 Oeste 28 Oeste 0 -- -- 53
2020-06-13 13:00:00 13.8 15 Oeste 27 Oeste 0 -- -- 61
2020-06-13 12:00:00 12.8 15 Oeste 26 Oeste 0 -- -- 67
2020-06-13 11:00:00 11 15 Oeste 30 Oeste 0.2 -- -- 76
2020-06-13 10:00:00 10.2 17 Sudoeste 28 Sudoeste 0 -- -- 81
2020-06-13 09:00:00 8.8 15 Oeste 26 Oeste 0 -- -- 87
2020-06-13 08:00:00 8.9 14 Oeste 25 Sudoeste 0 -- -- 90
2020-06-13 07:00:00 8.8 14 Oeste 24 Oeste 0 -- -- 91
2020-06-13 06:00:00 8.9 10 Oeste 30 Sudoeste 0 -- -- 91
2020-06-13 05:00:00 8.8 14 Oeste 24 Sudoeste 0 -- -- 91
2020-06-13 04:00:00 8.9 14 Sudoeste 27 Sudoeste 0 -- -- 91
2020-06-13 03:00:00 9.2 10 Sudoeste 25 Sudoeste 0 -- -- 92
2020-06-13 02:00:00 9.1 11 Oeste 25 Sudoeste 0 -- -- 92
2020-06-13 01:00:00 8.8 7 Sudoeste 23 Sudoeste 0 -- -- 91
2020-06-13 00:00:00 9 9 Sudoeste 20 Sudoeste 0.2 -- -- 90
2020-06-12 23:00:00 9.6 13 Sudoeste 22 Sudoeste 0 -- -- 89
2020-06-12 22:00:00 9.7 6 Sudoeste 17 Sudoeste 0.2 -- -- 89
2020-06-12 21:00:00 10 5 Oeste 27 Oeste 0.2 -- -- 88
2020-06-12 20:00:00 9.6 16 Oeste 34 Noroeste 0 -- -- 82
2020-06-12 19:00:00 12.6 19 Oeste 31 Oeste 0 -- -- 75
2020-06-12 18:00:00 10.6 14 Sudoeste 41 Oeste 1.6 -- -- 85
2020-06-12 17:00:00 10.2 15 Oeste 43 Sudoeste 1 -- -- 87
2020-06-12 16:00:00 14.1 27 Sudoeste 44 Sudoeste 0 -- -- 62
2020-06-12 15:00:00 12.2 25 Sudoeste 46 Sudoeste 0 -- -- 75
2020-06-12 14:00:00 12.1 22 Sudoeste 41 Oeste 0.6 -- -- 79
2020-06-12 13:00:00 11.2 18 Oeste 45 Oeste 0.2 -- -- 80
2020-06-12 12:00:00 11.2 18 Sudoeste 44 Oeste 0 -- -- 68
2020-06-12 11:00:00 9.3 16 Sudoeste 34 Sudoeste 0 -- -- 76
2020-06-12 10:00:00 8.6 20 Sudoeste 36 Sudoeste 0 -- -- 78
2020-06-12 09:00:00 8.1 22 Sudoeste 43 Sudoeste 0 -- -- 77
2020-06-12 08:00:00 7.7 19 Sudoeste 35 Sudoeste 0 -- -- 77
2020-06-12 07:00:00 7.5 21 Sudoeste 41 Sudoeste 0 -- -- 76
2020-06-12 06:00:00 7.2 19 Sudoeste 35 Sudoeste 0 -- -- 76
2020-06-12 05:00:00 6.9 15 Sudoeste 27 Sudoeste 0 -- -- 75
2020-06-12 04:00:00 7.3 14 Sudoeste 38 Oeste 0 -- -- 72
2020-06-12 03:00:00 8.9 22 Oeste 37 Sudoeste 0 -- -- 64
2020-06-12 02:00:00 9.2 15 Oeste 29 Oeste 0 -- -- 66
2020-06-12 01:00:00 9.1 9 Oeste 27 Oeste 0 -- -- 66
2020-06-12 00:00:00 10.5 17 Noroeste 30 Noroeste 0 -- -- 61